createdAt,value
2022-11-09T00:03:06.455Z,98965.00
2022-11-09T00:06:22.884Z,98966.92
2022-11-09T00:09:39.218Z,98970.80
2022-11-09T00:12:56.867Z,98964.03
2022-11-09T00:16:15.092Z,98973.68
2022-11-09T00:19:31.298Z,98959.73
2022-11-09T00:22:47.673Z,98968.43
2022-11-09T00:26:07.207Z,98968.57
2022-11-09T00:29:26.027Z,98959.17
2022-11-09T00:32:42.146Z,98960.13
2022-11-09T00:35:58.503Z,98956.27
2022-11-09T00:39:16.423Z,98961.52
2022-11-09T00:42:34.977Z,98956.13
2022-11-09T00:45:52.246Z,98955.98
2022-11-09T00:49:09.431Z,98963.05
2022-11-09T00:52:25.626Z,98962.34
2022-11-09T00:55:41.856Z,98966.34
2022-11-09T00:59:02.213Z,98968.16
2022-11-09T01:02:18.765Z,98972.30
2022-11-09T01:05:34.876Z,98974.48
2022-11-09T01:08:51.263Z,98972.67
2022-11-09T01:12:07.569Z,98964.24
2022-11-09T01:15:24.103Z,98956.45
2022-11-09T01:18:40.728Z,98954.67
2022-11-09T01:21:56.949Z,98953.14
2022-11-09T01:25:16.308Z,98951.20
2022-11-09T01:28:35.864Z,98948.47
2022-11-09T01:31:52.494Z,98950.38
2022-11-09T01:35:08.862Z,98949.25
2022-11-09T01:38:25.033Z,98939.86
2022-11-09T01:41:41.119Z,98945.49
2022-11-09T01:45:32.675Z,98943.44
2022-11-09T01:48:52.038Z,98939.17
2022-11-09T01:52:08.236Z,98932.37
2022-11-09T01:58:44.932Z,98921.31
2022-11-09T02:02:04.822Z,98924.75
2022-11-09T02:05:25.366Z,98912.45
2022-11-09T02:08:43.568Z,98913.22
2022-11-09T02:12:01.299Z,98913.50
2022-11-09T02:15:21.179Z,98922.23
2022-11-09T02:18:38.637Z,98921.36
2022-11-09T02:21:55.332Z,98920.80
2022-11-09T02:25:15.958Z,98924.89
2022-11-09T02:28:33.996Z,98923.41
2022-11-09T02:31:55.273Z,98921.23
2022-11-09T02:35:12.825Z,98921.89
2022-11-09T02:38:29.918Z,98916.59
2022-11-09T02:41:51.940Z,98928.84
2022-11-09T02:45:09.704Z,98918.20
2022-11-09T02:48:27.474Z,98921.92
2022-11-09T02:51:45.448Z,98924.41
2022-11-09T02:55:02.495Z,98917.25
2022-11-09T02:58:19.103Z,98914.63
2022-11-09T03:01:35.842Z,98914.00
2022-11-09T03:04:52.070Z,98913.80
2022-11-09T03:08:08.756Z,98920.56
2022-11-09T03:11:24.940Z,98913.15
2022-11-09T03:14:41.187Z,98917.00
2022-11-09T03:17:58.198Z,98919.61
2022-11-09T03:21:15.195Z,98930.81
2022-11-09T03:24:35.291Z,98928.63
2022-11-09T03:27:52.680Z,98926.14
2022-11-09T03:31:08.917Z,98927.34
2022-11-09T03:34:25.529Z,98923.77
2022-11-09T03:37:42.150Z,98915.91
2022-11-09T03:40:59.019Z,98915.60
2022-11-09T03:44:15.571Z,98915.98
2022-11-09T03:47:33.101Z,98905.19
2022-11-09T03:50:49.290Z,98901.35
2022-11-09T03:54:05.398Z,98903.02
2022-11-09T03:57:22.618Z,98903.16
2022-11-09T04:00:40.621Z,98902.58
2022-11-09T04:03:58.852Z,98901.63
2022-11-09T04:07:15.488Z,98911.25
2022-11-09T04:10:33.881Z,98916.05
2022-11-09T04:13:50.072Z,98912.84
2022-11-09T04:17:06.381Z,98914.75
2022-11-09T04:20:22.942Z,98907.61
2022-11-09T04:23:39.203Z,98910.73
2022-11-09T04:26:56.663Z,98904.34
2022-11-09T04:30:16.214Z,98900.01
2022-11-09T04:33:29.955Z,98896.54
2022-11-09T04:36:46.270Z,98900.83
2022-11-09T04:40:02.552Z,98905.61
2022-11-09T04:43:21.858Z,98902.86
2022-11-09T04:46:35.914Z,98912.38
2022-11-09T04:49:51.876Z,98902.05
2022-11-09T04:56:25.181Z,98904.58
2022-11-09T04:59:41.959Z,98905.16
2022-11-09T05:02:58.041Z,98893.89
2022-11-09T05:06:25.217Z,98897.81
2022-11-09T05:12:57.595Z,98896.73
2022-11-09T05:16:14.566Z,98891.73
2022-11-09T05:19:30.901Z,98893.79
2022-11-09T05:23:04.550Z,98889.88
2022-11-09T05:26:21.086Z,98883.42
2022-11-09T05:29:37.198Z,98891.05
2022-11-09T05:32:53.366Z,98901.95
2022-11-09T05:36:11.902Z,98897.81
2022-11-09T05:39:28.140Z,98893.26
2022-11-09T05:42:46.029Z,98899.98
2022-11-09T05:46:06.764Z,98893.08
2022-11-09T05:49:23.005Z,98889.61
2022-11-09T05:52:39.237Z,98901.05
2022-11-09T05:55:55.539Z,98907.47
2022-11-09T05:59:12.145Z,98902.83
2022-11-09T06:02:28.983Z,98907.91
2022-11-09T06:05:48.332Z,98908.51
2022-11-09T06:09:05.861Z,98913.14
2022-11-09T06:12:22.472Z,98913.59
2022-11-09T06:15:39.194Z,98913.59
2022-11-09T06:18:56.195Z,98912.11
2022-11-09T06:22:13.040Z,98910.80
2022-11-09T06:25:30.258Z,98921.98
2022-11-09T06:28:47.892Z,98920.77
2022-11-09T06:32:04.300Z,98925.11
2022-11-09T06:35:22.237Z,98921.09
2022-11-09T06:38:38.793Z,98925.45
2022-11-09T06:41:54.893Z,98932.80
2022-11-09T06:45:13.442Z,98930.69
2022-11-09T06:48:30.589Z,98934.95
2022-11-09T06:51:51.385Z,98935.50
2022-11-09T06:55:15.554Z,98935.74
2022-11-09T06:58:29.975Z,98934.48
2022-11-09T07:01:46.993Z,98935.97
2022-11-09T07:05:04.592Z,98934.58
2022-11-09T07:08:24.201Z,98933.11
2022-11-09T07:11:38.472Z,98937.22
2022-11-09T07:14:54.504Z,98934.73
2022-11-09T07:18:17.677Z,98929.71
2022-11-09T07:21:33.837Z,98933.68
2022-11-09T07:24:50.128Z,98934.34
2022-11-09T07:28:14.260Z,98928.54
2022-11-09T07:31:32.917Z,98933.80
2022-11-09T07:34:52.627Z,98926.55
2022-11-09T07:38:11.408Z,98932.50
2022-11-09T07:41:34.492Z,98935.26
2022-11-09T07:44:49.268Z,98931.97
2022-11-09T07:48:08.989Z,98928.74
2022-11-09T07:51:27.021Z,98934.80
2022-11-09T07:58:04.696Z,98933.17
2022-11-09T08:01:25.390Z,98935.11
2022-11-09T08:04:42.450Z,98923.80
2022-11-09T08:08:05.019Z,98917.05
2022-11-09T08:11:24.123Z,98919.59
2022-11-09T08:14:40.806Z,98941.83
2022-11-09T08:17:57.321Z,98924.23
2022-11-09T08:21:14.394Z,98926.89
2022-11-09T08:24:31.771Z,98924.59
2022-11-09T08:27:48.466Z,98929.73
2022-11-09T08:31:10.326Z,98918.33
2022-11-09T08:34:27.043Z,98923.27
2022-11-09T08:41:19.461Z,98913.63
2022-11-09T08:44:35.823Z,98920.26
2022-11-09T08:47:52.592Z,98923.58
2022-11-09T08:51:10.460Z,98918.42
2022-11-09T08:54:26.708Z,98914.19
2022-11-09T08:57:43.395Z,98916.00
2022-11-09T09:01:00.932Z,98914.64
2022-11-09T09:04:17.179Z,98911.80
2022-11-09T09:07:33.814Z,98914.63
2022-11-09T09:10:50.486Z,98915.73
2022-11-09T09:14:07.028Z,98913.55
2022-11-09T09:17:23.407Z,98914.32
2022-11-09T09:20:39.735Z,98909.28
2022-11-09T09:23:57.784Z,98906.04
2022-11-09T09:27:17.746Z,98906.76
2022-11-09T09:30:34.133Z,98901.69
2022-11-09T09:33:53.156Z,98900.73
2022-11-09T09:37:13.977Z,98901.77
2022-11-09T09:40:39.321Z,98899.41
2022-11-09T09:44:00.238Z,98902.64
2022-11-09T09:47:23.110Z,98897.95
2022-11-09T09:50:46.845Z,98902.72
2022-11-09T09:54:09.988Z,98891.56
2022-11-09T09:57:31.213Z,98893.84
2022-11-09T10:00:50.729Z,98885.98
2022-11-09T10:04:11.166Z,98883.79
2022-11-09T10:07:32.979Z,98885.59
2022-11-09T10:15:02.109Z,98890.91
2022-11-09T10:18:43.098Z,98889.26
2022-11-09T10:22:08.005Z,98889.99
2022-11-09T10:29:21.841Z,98875.36
2022-11-09T10:32:39.795Z,98877.17
2022-11-09T10:36:05.256Z,98884.88
2022-11-09T10:39:22.681Z,98879.38
2022-11-09T10:43:02.567Z,98878.38
2022-11-09T10:46:36.619Z,98879.38
2022-11-09T10:50:27.711Z,98879.83
2022-11-09T10:57:33.107Z,98878.94
2022-11-09T11:01:25.876Z,98876.55
2022-11-09T11:05:07.498Z,98881.28
2022-11-09T11:08:48.652Z,98879.73
2022-11-09T11:12:28.430Z,98878.14
2022-11-09T11:16:04.186Z,98876.78
2022-11-09T11:19:46.892Z,98881.91
2022-11-09T11:23:27.162Z,98868.27
2022-11-09T11:27:10.526Z,98873.09
2022-11-09T11:30:44.729Z,98880.12
2022-11-09T11:34:45.725Z,98881.66
2022-11-09T11:38:07.409Z,98873.78
2022-11-09T11:42:25.046Z,98875.03
2022-11-09T11:46:07.213Z,98865.30
2022-11-09T11:50:05.583Z,98864.73
2022-11-09T11:53:59.733Z,98864.98
2022-11-09T11:57:40.042Z,98868.89
2022-11-09T12:01:21.731Z,98869.70
2022-11-09T12:05:14.043Z,98877.52
2022-11-09T12:09:04.797Z,98871.80
2022-11-09T12:12:47.976Z,98864.47
2022-11-09T12:16:28.376Z,98866.12
2022-11-09T12:20:37.267Z,98860.41
2022-11-09T12:24:29.485Z,98858.38
2022-11-09T12:28:33.399Z,98855.52
2022-11-09T12:32:18.544Z,98853.30
2022-11-09T12:35:59.927Z,98856.61
2022-11-09T12:39:41.051Z,98859.88
2022-11-09T12:43:25.380Z,98856.01
2022-11-09T12:47:05.218Z,98850.52
2022-11-09T12:50:41.224Z,98856.45
2022-11-09T12:57:35.537Z,98859.11
2022-11-09T13:01:12.483Z,98865.44
2022-11-09T13:04:47.097Z,98863.62
2022-11-09T13:12:47.106Z,98872.61
2022-11-09T13:16:39.332Z,98878.94
2022-11-09T13:20:55.241Z,98874.02
2022-11-09T13:25:01.869Z,98871.73
2022-11-09T13:29:15.178Z,98879.70
2022-11-09T13:33:05.901Z,98877.25
2022-11-09T13:36:40.051Z,98879.27
2022-11-09T13:40:49.092Z,98876.16
2022-11-09T13:44:35.773Z,98879.02
2022-11-09T13:48:09.473Z,98873.70
2022-11-09T13:51:53.883Z,98870.39
2022-11-09T13:55:45.853Z,98871.48
2022-11-09T13:59:28.613Z,98870.92
2022-11-09T14:03:09.490Z,98863.95
2022-11-09T14:06:43.961Z,98869.27
2022-11-09T14:10:25.196Z,98866.80
2022-11-09T14:14:36.526Z,98865.97
2022-11-09T14:18:24.696Z,98855.52
2022-11-09T14:22:01.510Z,98866.97
2022-11-09T14:28:52.391Z,98863.45
2022-11-09T14:32:36.892Z,98862.17
2022-11-09T14:36:13.286Z,98866.04
2022-11-09T14:39:48.784Z,98854.59
2022-11-09T14:43:32.744Z,98856.48
2022-11-09T14:47:08.041Z,98853.88
2022-11-09T14:50:45.504Z,98854.80
2022-11-09T14:54:30.011Z,98850.49
2022-11-09T14:58:23.935Z,98846.22
2022-11-09T15:02:13.853Z,98849.69
2022-11-09T15:05:50.584Z,98859.61
2022-11-09T15:09:32.746Z,98859.75
2022-11-09T15:13:10.621Z,98848.70
2022-11-09T15:16:45.825Z,98853.86
2022-11-09T15:20:39.505Z,98848.36
2022-11-09T15:24:26.268Z,98855.85
2022-11-09T15:28:31.739Z,98849.34
2022-11-09T15:32:19.472Z,98849.50
2022-11-09T15:36:01.212Z,98849.93
2022-11-09T15:39:35.664Z,98850.66
2022-11-09T15:43:12.327Z,98845.31
2022-11-09T15:46:51.270Z,98850.08
2022-11-09T15:50:30.191Z,98849.67
2022-11-09T15:54:04.481Z,98840.95
2022-11-09T15:57:40.665Z,98843.81
2022-11-09T16:01:15.645Z,98839.21
2022-11-09T16:13:26.855Z,98847.57
2022-11-09T16:17:01.924Z,98850.09
2022-11-09T16:20:37.450Z,98846.09
2022-11-09T16:24:11.666Z,98840.01
2022-11-09T16:27:51.611Z,98847.46
2022-11-09T16:31:50.263Z,98840.08
2022-11-09T16:38:46.754Z,98850.19
2022-11-09T16:42:28.319Z,98846.28
2022-11-09T16:46:03.756Z,98850.58
2022-11-09T16:49:41.153Z,98846.60
2022-11-09T16:53:17.085Z,98841.98
2022-11-09T16:56:58.774Z,98846.59
2022-11-09T17:04:11.990Z,98850.23
2022-11-09T17:07:47.285Z,98852.38
2022-11-09T17:11:23.512Z,98865.09
2022-11-09T17:14:58.304Z,98871.53
2022-11-09T17:18:32.504Z,98872.02
2022-11-09T17:22:06.477Z,98881.61
2022-11-09T17:25:41.512Z,98872.66
2022-11-09T17:29:16.119Z,98874.48
2022-11-09T17:32:52.012Z,98865.89
2022-11-09T17:36:49.313Z,98866.03
2022-11-09T17:40:04.188Z,98873.23
2022-11-09T17:43:42.842Z,98867.48
2022-11-09T17:47:19.156Z,98873.40
2022-11-09T17:50:53.541Z,98873.88
2022-11-09T17:54:32.558Z,98879.48
2022-11-09T17:58:05.124Z,98872.55
2022-11-09T18:01:41.424Z,98878.34
2022-11-09T18:05:18.707Z,98872.84
2022-11-09T18:09:26.775Z,98876.11
2022-11-09T18:12:32.503Z,98885.36
2022-11-09T18:16:07.624Z,98882.48
2022-11-09T18:19:45.584Z,98892.85
2022-11-09T18:23:20.279Z,98893.91
2022-11-09T18:26:55.117Z,98888.58
2022-11-09T18:30:34.330Z,98891.14
2022-11-09T18:34:08.594Z,98886.88
2022-11-09T18:37:47.247Z,98888.73
2022-11-09T18:41:24.687Z,98890.27
2022-11-09T18:45:00.668Z,98887.95
2022-11-09T18:48:36.624Z,98897.46
2022-11-09T18:52:11.560Z,98891.47
2022-11-09T18:55:46.103Z,98891.77
2022-11-09T18:59:21.810Z,98893.06
2022-11-09T19:02:56.516Z,98899.83
2022-11-09T19:06:31.836Z,98896.02
2022-11-09T19:10:07.383Z,98897.77
2022-11-09T19:13:41.747Z,98898.38
2022-11-09T19:17:18.807Z,98891.29
2022-11-09T19:20:54.446Z,98896.20
2022-11-09T19:24:32.413Z,98891.45
2022-11-09T19:28:08.637Z,98892.34
2022-11-09T19:31:58.415Z,98890.59
2022-11-09T19:35:35.968Z,98894.65
2022-11-09T19:39:14.098Z,98892.38
2022-11-09T19:42:50.787Z,98877.86
2022-11-09T19:46:26.511Z,98890.22
2022-11-09T19:50:01.171Z,98885.41
2022-11-09T19:53:42.039Z,98891.29
2022-11-09T19:57:13.076Z,98885.33
2022-11-09T20:00:47.637Z,98888.48
2022-11-09T20:04:22.985Z,98882.41
2022-11-09T20:07:58.664Z,98887.31
2022-11-09T20:11:49.231Z,98885.45
2022-11-09T20:15:26.755Z,98888.08
2022-11-09T20:19:02.916Z,98893.27
2022-11-09T20:22:39.856Z,98893.19
2022-11-09T20:26:17.645Z,98885.07
2022-11-09T20:29:54.637Z,98876.80
2022-11-09T20:33:29.536Z,98878.05
2022-11-09T20:37:03.739Z,98878.91
2022-11-09T20:40:37.692Z,98880.78
2022-11-09T20:44:12.040Z,98885.60
2022-11-09T20:48:07.203Z,98878.75
2022-11-09T20:51:24.396Z,98886.27
2022-11-09T20:54:58.709Z,98888.94
2022-11-09T20:58:33.903Z,98894.89
2022-11-09T21:02:09.426Z,98890.22
2022-11-09T21:05:50.515Z,98902.01
2022-11-09T21:09:21.692Z,98901.63
2022-11-09T21:12:55.782Z,98891.41
2022-11-09T21:16:31.814Z,98889.53
2022-11-09T21:20:06.610Z,98888.68
2022-11-09T21:23:55.564Z,98890.70
2022-11-09T21:27:48.211Z,98891.83
2022-11-09T21:31:22.669Z,98896.39
2022-11-09T21:34:58.670Z,98909.98
2022-11-09T21:38:33.246Z,98905.99
2022-11-09T21:42:08.358Z,98909.16
2022-11-09T21:45:42.695Z,98913.50
2022-11-09T21:49:18.615Z,98916.70
2022-11-09T21:52:52.876Z,98923.52
2022-11-09T21:56:27.398Z,98922.84
2022-11-09T22:00:01.611Z,98926.59
2022-11-09T22:03:36.144Z,98927.28
2022-11-09T22:07:10.613Z,98928.55
2022-11-09T22:10:44.745Z,98920.13
2022-11-09T22:14:37.026Z,98928.58
2022-11-09T22:18:13.430Z,98928.97
2022-11-09T22:21:47.706Z,98934.08
2022-11-09T22:28:39.603Z,98935.00
2022-11-09T22:32:15.633Z,98937.56
2022-11-09T22:35:49.530Z,98939.42
2022-11-09T22:39:23.483Z,98950.06
2022-11-09T22:43:01.697Z,98941.95
2022-11-09T22:46:35.769Z,98936.77
2022-11-09T22:50:10.199Z,98934.95
2022-11-09T22:53:44.263Z,98948.88
2022-11-09T22:57:18.615Z,98948.50
2022-11-09T23:00:52.829Z,98953.02
2022-11-09T23:04:26.837Z,98956.35
2022-11-09T23:08:02.324Z,98955.95
2022-11-09T23:15:12.472Z,98958.88
2022-11-09T23:18:59.897Z,98958.11
2022-11-09T23:22:37.510Z,98961.11
2022-11-09T23:29:27.514Z,98957.95
2022-11-09T23:33:01.654Z,98958.95
2022-11-09T23:36:36.877Z,98963.74
2022-11-09T23:45:20.302Z,98980.45
2022-11-09T23:48:54.576Z,98980.97
2022-11-09T23:52:28.569Z,98982.34
2022-11-09T23:56:06.805Z,98991.75
2022-11-09T23:59:41.139Z,98998.00
